sensor_id;sensor_type;location;lat;lon;timestamp;P1;durP1;ratioP1;P2;durP2;ratioP2
4831;SDS011;2430;51.322;7.864;2022-09-12T00:01:01;4.03;;;2.83;;
4831;SDS011;2430;51.322;7.864;2022-09-12T00:03:28;3.53;;;2.60;;
4831;SDS011;2430;51.322;7.864;2022-09-12T00:05:55;2.30;;;2.00;;
4831;SDS011;2430;51.322;7.864;2022-09-12T00:08:22;1.80;;;1.70;;
4831;SDS011;2430;51.322;7.864;2022-09-12T00:10:49;2.80;;;2.33;;
4831;SDS011;2430;51.322;7.864;2022-09-12T00:13:15;6.73;;;2.60;;
4831;SDS011;2430;51.322;7.864;2022-09-12T00:15:42;2.80;;;2.33;;
4831;SDS011;2430;51.322;7.864;2022-09-12T00:18:11;6.00;;;2.97;;
4831;SDS011;2430;51.322;7.864;2022-09-12T00:20:39;4.43;;;2.17;;
4831;SDS011;2430;51.322;7.864;2022-09-12T00:23:07;4.67;;;2.53;;
4831;SDS011;2430;51.322;7.864;2022-09-12T00:25:34;4.07;;;2.60;;
4831;SDS011;2430;51.322;7.864;2022-09-12T00:28:05;2.57;;;2.37;;
4831;SDS011;2430;51.322;7.864;2022-09-12T00:30:32;2.90;;;2.67;;
4831;SDS011;2430;51.322;7.864;2022-09-12T00:32:58;4.37;;;2.27;;
4831;SDS011;2430;51.322;7.864;2022-09-12T00:35:25;4.10;;;2.13;;
4831;SDS011;2430;51.322;7.864;2022-09-12T00:37:51;2.13;;;1.67;;
4831;SDS011;2430;51.322;7.864;2022-09-12T00:40:19;2.10;;;1.53;;
4831;SDS011;2430;51.322;7.864;2022-09-12T00:42:46;6.53;;;1.80;;
4831;SDS011;2430;51.322;7.864;2022-09-12T00:45:16;2.50;;;2.40;;
4831;SDS011;2430;51.322;7.864;2022-09-12T00:47:44;4.13;;;2.70;;
4831;SDS011;2430;51.322;7.864;2022-09-12T00:50:11;3.13;;;2.83;;
4831;SDS011;2430;51.322;7.864;2022-09-12T00:52:39;2.90;;;1.90;;
4831;SDS011;2430;51.322;7.864;2022-09-12T00:55:06;2.33;;;2.13;;
4831;SDS011;2430;51.322;7.864;2022-09-12T00:57:36;2.63;;;2.00;;
4831;SDS011;2430;51.322;7.864;2022-09-12T01:00:06;2.90;;;2.50;;
4831;SDS011;2430;51.322;7.864;2022-09-12T01:02:36;2.33;;;2.10;;
4831;SDS011;2430;51.322;7.864;2022-09-12T01:05:04;2.20;;;2.00;;
4831;SDS011;2430;51.322;7.864;2022-09-12T01:07:31;5.77;;;2.07;;
4831;SDS011;2430;51.322;7.864;2022-09-12T01:09:59;4.73;;;3.40;;
4831;SDS011;2430;51.322;7.864;2022-09-12T01:12:26;3.50;;;2.23;;
4831;SDS011;2430;51.322;7.864;2022-09-12T01:14:54;2.63;;;2.00;;
4831;SDS011;2430;51.322;7.864;2022-09-12T01:17:20;1.67;;;1.57;;
4831;SDS011;2430;51.322;7.864;2022-09-12T01:20:06;6.20;;;2.30;;
4831;SDS011;2430;51.322;7.864;2022-09-12T01:22:46;4.47;;;2.80;;
4831;SDS011;2430;51.322;7.864;2022-09-12T01:25:18;2.47;;;1.77;;
4831;SDS011;2430;51.322;7.864;2022-09-12T01:27:55;3.23;;;1.87;;
4831;SDS011;2430;51.322;7.864;2022-09-12T01:30:37;3.63;;;2.27;;
4831;SDS011;2430;51.322;7.864;2022-09-12T01:33:20;4.43;;;2.60;;
4831;SDS011;2430;51.322;7.864;2022-09-12T01:35:51;4.03;;;2.17;;
4831;SDS011;2430;51.322;7.864;2022-09-12T01:38:22;5.17;;;3.57;;
4831;SDS011;2430;51.322;7.864;2022-09-12T01:40:51;1.47;;;1.37;;
4831;SDS011;2430;51.322;7.864;2022-09-12T01:43:20;3.53;;;3.23;;
4831;SDS011;2430;51.322;7.864;2022-09-12T01:45:54;1.87;;;1.77;;
4831;SDS011;2430;51.322;7.864;2022-09-12T01:48:23;2.60;;;1.90;;
4831;SDS011;2430;51.322;7.864;2022-09-12T01:50:53;2.20;;;2.10;;
4831;SDS011;2430;51.322;7.864;2022-09-12T01:53:22;2.00;;;1.90;;
4831;SDS011;2430;51.322;7.864;2022-09-12T01:55:52;1.60;;;1.50;;
4831;SDS011;2430;51.322;7.864;2022-09-12T01:58:20;3.77;;;2.13;;
4831;SDS011;2430;51.322;7.864;2022-09-12T02:00:49;2.57;;;2.37;;
4831;SDS011;2430;51.322;7.864;2022-09-12T02:03:19;2.50;;;2.30;;
4831;SDS011;2430;51.322;7.864;2022-09-12T02:05:49;2.30;;;2.13;;
4831;SDS011;2430;51.322;7.864;2022-09-12T02:08:17;3.67;;;2.67;;
4831;SDS011;2430;51.322;7.864;2022-09-12T02:10:46;1.60;;;1.50;;
4831;SDS011;2430;51.322;7.864;2022-09-12T02:13:15;2.90;;;2.40;;
4831;SDS011;2430;51.322;7.864;2022-09-12T02:15:44;1.50;;;1.40;;
4831;SDS011;2430;51.322;7.864;2022-09-12T02:18:12;1.63;;;1.53;;
4831;SDS011;2430;51.322;7.864;2022-09-12T02:20:41;6.10;;;2.40;;
4831;SDS011;2430;51.322;7.864;2022-09-12T02:23:09;2.93;;;2.67;;
4831;SDS011;2430;51.322;7.864;2022-09-12T02:25:37;12.53;;;2.10;;
4831;SDS011;2430;51.322;7.864;2022-09-12T02:28:07;1.93;;;1.67;;
4831;SDS011;2430;51.322;7.864;2022-09-12T02:33:19;2.30;;;1.50;;
4831;SDS011;2430;51.322;7.864;2022-09-12T02:35:52;2.37;;;2.17;;
4831;SDS011;2430;51.322;7.864;2022-09-12T02:38:23;2.17;;;1.97;;
4831;SDS011;2430;51.322;7.864;2022-09-12T02:40:51;4.20;;;3.17;;
4831;SDS011;2430;51.322;7.864;2022-09-12T02:43:18;3.87;;;2.30;;
4831;SDS011;2430;51.322;7.864;2022-09-12T02:45:44;2.90;;;1.83;;
4831;SDS011;2430;51.322;7.864;2022-09-12T02:48:11;2.43;;;2.23;;
4831;SDS011;2430;51.322;7.864;2022-09-12T02:50:40;2.23;;;1.87;;
4831;SDS011;2430;51.322;7.864;2022-09-12T02:53:08;10.07;;;3.27;;
4831;SDS011;2430;51.322;7.864;2022-09-12T02:55:35;1.63;;;1.53;;
4831;SDS011;2430;51.322;7.864;2022-09-12T02:58:04;2.23;;;2.00;;
4831;SDS011;2430;51.322;7.864;2022-09-12T03:00:32;1.70;;;1.60;;
4831;SDS011;2430;51.322;7.864;2022-09-12T03:05:43;6.73;;;2.97;;
4831;SDS011;2430;51.322;7.864;2022-09-12T03:08:36;3.67;;;2.00;;
4831;SDS011;2430;51.322;7.864;2022-09-12T03:11:08;2.33;;;1.60;;
4831;SDS011;2430;51.322;7.864;2022-09-12T03:13:42;1.63;;;1.53;;
4831;SDS011;2430;51.322;7.864;2022-09-12T03:16:13;1.93;;;1.60;;
4831;SDS011;2430;51.322;7.864;2022-09-12T03:18:42;2.50;;;1.40;;
4831;SDS011;2430;51.322;7.864;2022-09-12T03:21:17;2.93;;;2.20;;
4831;SDS011;2430;51.322;7.864;2022-09-12T03:23:49;2.50;;;2.30;;
4831;SDS011;2430;51.322;7.864;2022-09-12T03:26:19;2.67;;;2.47;;
4831;SDS011;2430;51.322;7.864;2022-09-12T03:28:46;1.40;;;1.30;;
4831;SDS011;2430;51.322;7.864;2022-09-12T03:31:13;2.07;;;1.97;;
4831;SDS011;2430;51.322;7.864;2022-09-12T03:33:40;2.30;;;1.77;;
4831;SDS011;2430;51.322;7.864;2022-09-12T03:36:09;2.10;;;2.00;;
4831;SDS011;2430;51.322;7.864;2022-09-12T03:38:39;1.80;;;1.70;;
4831;SDS011;2430;51.322;7.864;2022-09-12T03:41:08;1.40;;;1.30;;
4831;SDS011;2430;51.322;7.864;2022-09-12T03:43:34;2.30;;;2.17;;
4831;SDS011;2430;51.322;7.864;2022-09-12T03:46:01;4.37;;;2.20;;
4831;SDS011;2430;51.322;7.864;2022-09-12T03:48:27;3.07;;;1.53;;
4831;SDS011;2430;51.322;7.864;2022-09-12T03:50:58;1.70;;;1.60;;
4831;SDS011;2430;51.322;7.864;2022-09-12T03:53:24;1.73;;;1.43;;
4831;SDS011;2430;51.322;7.864;2022-09-12T03:55:51;2.93;;;1.87;;
4831;SDS011;2430;51.322;7.864;2022-09-12T03:58:19;1.50;;;1.40;;
4831;SDS011;2430;51.322;7.864;2022-09-12T04:00:46;2.70;;;1.83;;
4831;SDS011;2430;51.322;7.864;2022-09-12T04:03:18;3.27;;;2.97;;
4831;SDS011;2430;51.322;7.864;2022-09-12T04:05:45;2.93;;;2.63;;
4831;SDS011;2430;51.322;7.864;2022-09-12T04:08:11;4.40;;;3.20;;
4831;SDS011;2430;51.322;7.864;2022-09-12T04:10:38;2.00;;;1.90;;
4831;SDS011;2430;51.322;7.864;2022-09-12T04:13:04;1.67;;;1.57;;
4831;SDS011;2430;51.322;7.864;2022-09-12T04:15:32;2.40;;;2.13;;
4831;SDS011;2430;51.322;7.864;2022-09-12T04:17:59;2.97;;;1.60;;
4831;SDS011;2430;51.322;7.864;2022-09-12T04:20:25;2.10;;;2.00;;
4831;SDS011;2430;51.322;7.864;2022-09-12T04:22:52;3.77;;;3.00;;
4831;SDS011;2430;51.322;7.864;2022-09-12T04:25:18;2.07;;;1.97;;
4831;SDS011;2430;51.322;7.864;2022-09-12T04:27:45;2.53;;;2.33;;
4831;SDS011;2430;51.322;7.864;2022-09-12T04:30:11;1.50;;;1.40;;
4831;SDS011;2430;51.322;7.864;2022-09-12T04:32:39;2.97;;;1.57;;
4831;SDS011;2430;51.322;7.864;2022-09-12T04:35:06;1.67;;;1.57;;
4831;SDS011;2430;51.322;7.864;2022-09-12T04:37:33;1.83;;;1.73;;
4831;SDS011;2430;51.322;7.864;2022-09-12T04:40:02;3.20;;;2.43;;
4831;SDS011;2430;51.322;7.864;2022-09-12T04:42:29;2.00;;;1.73;;
4831;SDS011;2430;51.322;7.864;2022-09-12T04:44:56;2.10;;;1.90;;
4831;SDS011;2430;51.322;7.864;2022-09-12T04:47:22;3.60;;;1.90;;
4831;SDS011;2430;51.322;7.864;2022-09-12T04:49:50;2.10;;;2.00;;
4831;SDS011;2430;51.322;7.864;2022-09-12T04:52:16;2.53;;;2.30;;
4831;SDS011;2430;51.322;7.864;2022-09-12T04:54:43;1.80;;;1.70;;
4831;SDS011;2430;51.322;7.864;2022-09-12T04:57:09;1.90;;;1.70;;
4831;SDS011;2430;51.322;7.864;2022-09-12T04:59:37;1.90;;;1.80;;
4831;SDS011;2430;51.322;7.864;2022-09-12T05:02:03;1.83;;;1.60;;
4831;SDS011;2430;51.322;7.864;2022-09-12T05:04:30;2.13;;;1.40;;
4831;SDS011;2430;51.322;7.864;2022-09-12T05:06:58;6.53;;;2.10;;
4831;SDS011;2430;51.322;7.864;2022-09-12T05:09:25;1.53;;;1.43;;
4831;SDS011;2430;51.322;7.864;2022-09-12T05:11:51;1.87;;;1.77;;
4831;SDS011;2430;51.322;7.864;2022-09-12T05:14:18;1.57;;;1.47;;
4831;SDS011;2430;51.322;7.864;2022-09-12T05:16:44;1.50;;;1.40;;
4831;SDS011;2430;51.322;7.864;2022-09-12T05:19:11;2.23;;;1.83;;
4831;SDS011;2430;51.322;7.864;2022-09-12T05:21:38;1.67;;;1.57;;
4831;SDS011;2430;51.322;7.864;2022-09-12T05:24:06;1.37;;;1.27;;
4831;SDS011;2430;51.322;7.864;2022-09-12T05:26:32;2.50;;;2.10;;
4831;SDS011;2430;51.322;7.864;2022-09-12T05:28:59;1.50;;;1.10;;
4831;SDS011;2430;51.322;7.864;2022-09-12T05:31:25;2.90;;;1.50;;
4831;SDS011;2430;51.322;7.864;2022-09-12T05:33:53;6.83;;;2.27;;
4831;SDS011;2430;51.322;7.864;2022-09-12T05:36:20;2.50;;;2.30;;
4831;SDS011;2430;51.322;7.864;2022-09-12T05:38:54;1.93;;;1.70;;
4831;SDS011;2430;51.322;7.864;2022-09-12T05:41:23;2.73;;;2.40;;
4831;SDS011;2430;51.322;7.864;2022-09-12T05:43:50;1.60;;;1.50;;
4831;SDS011;2430;51.322;7.864;2022-09-12T05:46:18;2.77;;;2.57;;
4831;SDS011;2430;51.322;7.864;2022-09-12T05:48:45;2.87;;;2.43;;
4831;SDS011;2430;51.322;7.864;2022-09-12T05:51:13;2.60;;;2.10;;
4831;SDS011;2430;51.322;7.864;2022-09-12T05:53:43;1.50;;;1.40;;
4831;SDS011;2430;51.322;7.864;2022-09-12T05:56:11;1.97;;;1.87;;
4831;SDS011;2430;51.322;7.864;2022-09-12T05:58:39;2.20;;;2.10;;
4831;SDS011;2430;51.322;7.864;2022-09-12T06:01:07;2.47;;;2.00;;
4831;SDS011;2430;51.322;7.864;2022-09-12T06:03:35;2.43;;;1.77;;
4831;SDS011;2430;51.322;7.864;2022-09-12T06:06:03;1.53;;;1.43;;
4831;SDS011;2430;51.322;7.864;2022-09-12T06:08:30;2.47;;;2.27;;
4831;SDS011;2430;51.322;7.864;2022-09-12T06:11:00;2.40;;;2.20;;
4831;SDS011;2430;51.322;7.864;2022-09-12T06:13:26;5.77;;;2.33;;
4831;SDS011;2430;51.322;7.864;2022-09-12T06:15:54;2.73;;;2.43;;
4831;SDS011;2430;51.322;7.864;2022-09-12T06:18:20;1.90;;;1.80;;
4831;SDS011;2430;51.322;7.864;2022-09-12T06:20:47;1.30;;;1.20;;
4831;SDS011;2430;51.322;7.864;2022-09-12T06:23:13;2.33;;;2.13;;
4831;SDS011;2430;51.322;7.864;2022-09-12T06:25:44;2.53;;;2.33;;
4831;SDS011;2430;51.322;7.864;2022-09-12T06:28:11;2.07;;;1.97;;
4831;SDS011;2430;51.322;7.864;2022-09-12T06:30:37;2.27;;;2.07;;
4831;SDS011;2430;51.322;7.864;2022-09-12T06:33:05;2.07;;;1.70;;
4831;SDS011;2430;51.322;7.864;2022-09-12T06:35:34;2.30;;;1.83;;
4831;SDS011;2430;51.322;7.864;2022-09-12T06:38:00;3.33;;;2.30;;
4831;SDS011;2430;51.322;7.864;2022-09-12T06:40:27;2.93;;;2.60;;
4831;SDS011;2430;51.322;7.864;2022-09-12T06:42:53;2.33;;;1.97;;
4831;SDS011;2430;51.322;7.864;2022-09-12T06:45:20;3.30;;;3.00;;
4831;SDS011;2430;51.322;7.864;2022-09-12T06:47:47;4.93;;;3.03;;
4831;SDS011;2430;51.322;7.864;2022-09-12T06:50:15;2.93;;;2.77;;
4831;SDS011;2430;51.322;7.864;2022-09-12T06:52:41;3.90;;;2.03;;
4831;SDS011;2430;51.322;7.864;2022-09-12T06:55:08;3.60;;;3.30;;
4831;SDS011;2430;51.322;7.864;2022-09-12T06:57:35;2.93;;;2.67;;
4831;SDS011;2430;51.322;7.864;2022-09-12T07:00:03;2.67;;;2.47;;
4831;SDS011;2430;51.322;7.864;2022-09-12T07:02:30;2.67;;;2.10;;
4831;SDS011;2430;51.322;7.864;2022-09-12T07:05:03;2.47;;;2.27;;
4831;SDS011;2430;51.322;7.864;2022-09-12T07:07:31;4.07;;;3.60;;
4831;SDS011;2430;51.322;7.864;2022-09-12T07:10:00;3.13;;;2.80;;
4831;SDS011;2430;51.322;7.864;2022-09-12T07:12:26;3.27;;;2.80;;
4831;SDS011;2430;51.322;7.864;2022-09-12T07:14:53;4.50;;;2.93;;
4831;SDS011;2430;51.322;7.864;2022-09-12T07:17:19;4.33;;;3.30;;
4831;SDS011;2430;51.322;7.864;2022-09-12T07:19:46;3.73;;;3.43;;
4831;SDS011;2430;51.322;7.864;2022-09-12T07:22:12;4.53;;;3.50;;
4831;SDS011;2430;51.322;7.864;2022-09-12T07:24:40;3.97;;;3.63;;
4831;SDS011;2430;51.322;7.864;2022-09-12T07:27:07;12.23;;;3.30;;
4831;SDS011;2430;51.322;7.864;2022-09-12T07:29:34;2.50;;;2.30;;
4831;SDS011;2430;51.322;7.864;2022-09-12T07:32:00;3.93;;;2.73;;
4831;SDS011;2430;51.322;7.864;2022-09-12T07:34:27;1.50;;;1.33;;
4831;SDS011;2430;51.322;7.864;2022-09-12T07:36:53;1.43;;;1.33;;
4831;SDS011;2430;51.322;7.864;2022-09-12T07:39:20;2.73;;;2.03;;
4831;SDS011;2430;51.322;7.864;2022-09-12T07:41:48;1.40;;;1.30;;
4831;SDS011;2430;51.322;7.864;2022-09-12T07:44:14;2.70;;;2.50;;
4831;SDS011;2430;51.322;7.864;2022-09-12T07:46:41;4.03;;;2.57;;
4831;SDS011;2430;51.322;7.864;2022-09-12T07:49:07;1.97;;;1.77;;
4831;SDS011;2430;51.322;7.864;2022-09-12T07:51:34;2.57;;;2.20;;
4831;SDS011;2430;51.322;7.864;2022-09-12T07:54:00;1.90;;;1.77;;
4831;SDS011;2430;51.322;7.864;2022-09-12T07:56:30;3.43;;;2.37;;
4831;SDS011;2430;51.322;7.864;2022-09-12T07:58:58;3.77;;;2.17;;
4831;SDS011;2430;51.322;7.864;2022-09-12T08:01:25;1.87;;;1.77;;
4831;SDS011;2430;51.322;7.864;2022-09-12T08:03:52;3.77;;;1.70;;
4831;SDS011;2430;51.322;7.864;2022-09-12T08:06:20;4.30;;;2.30;;
4831;SDS011;2430;51.322;7.864;2022-09-12T08:08:48;5.17;;;2.60;;
4831;SDS011;2430;51.322;7.864;2022-09-12T08:11:21;2.33;;;1.90;;
4831;SDS011;2430;51.322;7.864;2022-09-12T08:13:48;1.63;;;1.53;;
4831;SDS011;2430;51.322;7.864;2022-09-12T08:16:18;2.33;;;2.13;;
4831;SDS011;2430;51.322;7.864;2022-09-12T08:18:45;2.57;;;2.37;;
4831;SDS011;2430;51.322;7.864;2022-09-12T08:21:12;2.97;;;2.47;;
4831;SDS011;2430;51.322;7.864;2022-09-12T08:23:39;2.20;;;2.00;;
4831;SDS011;2430;51.322;7.864;2022-09-12T08:26:05;2.63;;;1.90;;
4831;SDS011;2430;51.322;7.864;2022-09-12T08:28:33;5.50;;;3.67;;
4831;SDS011;2430;51.322;7.864;2022-09-12T08:31:00;4.00;;;2.33;;
4831;SDS011;2430;51.322;7.864;2022-09-12T08:33:28;3.03;;;2.70;;
4831;SDS011;2430;51.322;7.864;2022-09-12T08:36:01;4.73;;;2.70;;
4831;SDS011;2430;51.322;7.864;2022-09-12T08:38:28;8.30;;;3.83;;
4831;SDS011;2430;51.322;7.864;2022-09-12T08:40:57;2.97;;;2.73;;
4831;SDS011;2430;51.322;7.864;2022-09-12T08:43:28;4.37;;;2.57;;
4831;SDS011;2430;51.322;7.864;2022-09-12T08:46:00;6.47;;;3.20;;
4831;SDS011;2430;51.322;7.864;2022-09-12T08:48:31;6.03;;;3.80;;
4831;SDS011;2430;51.322;7.864;2022-09-12T08:50:58;3.23;;;2.00;;
4831;SDS011;2430;51.322;7.864;2022-09-12T08:53:25;2.53;;;2.33;;
4831;SDS011;2430;51.322;7.864;2022-09-12T08:55:55;4.87;;;3.10;;
4831;SDS011;2430;51.322;7.864;2022-09-12T08:58:23;6.57;;;3.43;;
4831;SDS011;2430;51.322;7.864;2022-09-12T09:00:52;3.37;;;2.90;;
4831;SDS011;2430;51.322;7.864;2022-09-12T09:06:07;7.20;;;3.80;;
4831;SDS011;2430;51.322;7.864;2022-09-12T09:08:41;2.97;;;2.67;;
4831;SDS011;2430;51.322;7.864;2022-09-12T09:11:14;5.00;;;2.87;;
4831;SDS011;2430;51.322;7.864;2022-09-12T09:13:46;5.17;;;2.13;;
4831;SDS011;2430;51.322;7.864;2022-09-12T09:16:34;4.97;;;3.73;;
4831;SDS011;2430;51.322;7.864;2022-09-12T09:19:03;3.40;;;3.10;;
4831;SDS011;2430;51.322;7.864;2022-09-12T09:21:34;4.30;;;3.83;;
4831;SDS011;2430;51.322;7.864;2022-09-12T09:24:03;5.97;;;3.53;;
4831;SDS011;2430;51.322;7.864;2022-09-12T09:26:34;3.83;;;3.53;;
4831;SDS011;2430;51.322;7.864;2022-09-12T09:29:04;3.53;;;3.23;;
4831;SDS011;2430;51.322;7.864;2022-09-12T09:31:32;3.70;;;3.40;;
4831;SDS011;2430;51.322;7.864;2022-09-12T09:33:59;5.30;;;2.60;;
4831;SDS011;2430;51.322;7.864;2022-09-12T09:36:29;3.13;;;2.60;;
4831;SDS011;2430;51.322;7.864;2022-09-12T09:39:00;3.20;;;2.93;;
4831;SDS011;2430;51.322;7.864;2022-09-12T09:41:33;4.37;;;2.70;;
4831;SDS011;2430;51.322;7.864;2022-09-12T09:44:00;2.73;;;2.30;;
4831;SDS011;2430;51.322;7.864;2022-09-12T09:46:27;3.00;;;2.60;;
4831;SDS011;2430;51.322;7.864;2022-09-12T09:48:54;3.87;;;2.57;;
4831;SDS011;2430;51.322;7.864;2022-09-12T09:51:24;2.50;;;2.30;;
4831;SDS011;2430;51.322;7.864;2022-09-12T09:53:52;6.00;;;3.00;;
4831;SDS011;2430;51.322;7.864;2022-09-12T09:56:24;2.80;;;2.60;;
4831;SDS011;2430;51.322;7.864;2022-09-12T09:58:52;4.67;;;3.23;;
4831;SDS011;2430;51.322;7.864;2022-09-12T10:01:18;5.93;;;3.37;;
4831;SDS011;2430;51.322;7.864;2022-09-12T10:03:48;2.73;;;2.47;;
4831;SDS011;2430;51.322;7.864;2022-09-12T10:06:25;7.57;;;2.40;;
4831;SDS011;2430;51.322;7.864;2022-09-12T10:09:02;4.70;;;3.17;;
4831;SDS011;2430;51.322;7.864;2022-09-12T10:11:30;4.20;;;2.63;;
4831;SDS011;2430;51.322;7.864;2022-09-12T10:13:58;1.93;;;1.63;;
4831;SDS011;2430;51.322;7.864;2022-09-12T10:16:26;2.83;;;2.23;;
4831;SDS011;2430;51.322;7.864;2022-09-12T10:18:53;13.63;;;1.80;;
4831;SDS011;2430;51.322;7.864;2022-09-12T10:21:22;2.87;;;2.13;;
4831;SDS011;2430;51.322;7.864;2022-09-12T10:23:56;2.47;;;1.90;;
4831;SDS011;2430;51.322;7.864;2022-09-12T10:26:25;2.93;;;1.80;;
4831;SDS011;2430;51.322;7.864;2022-09-12T10:28:54;1.93;;;1.83;;
4831;SDS011;2430;51.322;7.864;2022-09-12T10:31:25;2.20;;;2.10;;
4831;SDS011;2430;51.322;7.864;2022-09-12T10:33:54;2.60;;;1.73;;
4831;SDS011;2430;51.322;7.864;2022-09-12T10:36:21;5.50;;;1.67;;
4831;SDS011;2430;51.322;7.864;2022-09-12T10:38:49;2.13;;;1.43;;
4831;SDS011;2430;51.322;7.864;2022-09-12T10:41:16;5.13;;;1.83;;
4831;SDS011;2430;51.322;7.864;2022-09-12T10:43:43;2.53;;;1.90;;
4831;SDS011;2430;51.322;7.864;2022-09-12T10:46:21;4.07;;;2.20;;
4831;SDS011;2430;51.322;7.864;2022-09-12T10:48:50;2.27;;;2.07;;
4831;SDS011;2430;51.322;7.864;2022-09-12T10:51:25;4.43;;;1.80;;
4831;SDS011;2430;51.322;7.864;2022-09-12T10:53:53;1.90;;;1.80;;
4831;SDS011;2430;51.322;7.864;2022-09-12T10:56:20;1.67;;;1.20;;
4831;SDS011;2430;51.322;7.864;2022-09-12T10:58:51;1.27;;;1.17;;
4831;SDS011;2430;51.322;7.864;2022-09-12T11:01:27;1.57;;;1.13;;
4831;SDS011;2430;51.322;7.864;2022-09-12T11:04:03;1.63;;;1.53;;
4831;SDS011;2430;51.322;7.864;2022-09-12T11:06:36;2.30;;;1.77;;
4831;SDS011;2430;51.322;7.864;2022-09-12T11:09:05;2.70;;;1.87;;
4831;SDS011;2430;51.322;7.864;2022-09-12T11:11:38;1.30;;;1.20;;
4831;SDS011;2430;51.322;7.864;2022-09-12T11:14:09;1.37;;;1.27;;
4831;SDS011;2430;51.322;7.864;2022-09-12T11:16:41;1.57;;;1.33;;
4831;SDS011;2430;51.322;7.864;2022-09-12T11:21:56;1.70;;;1.53;;
4831;SDS011;2430;51.322;7.864;2022-09-12T11:27:17;1.77;;;1.20;;
4831;SDS011;2430;51.322;7.864;2022-09-12T11:29:51;2.03;;;1.83;;
4831;SDS011;2430;51.322;7.864;2022-09-12T11:32:29;2.90;;;1.30;;
4831;SDS011;2430;51.322;7.864;2022-09-12T11:35:01;1.63;;;1.53;;
4831;SDS011;2430;51.322;7.864;2022-09-12T11:37:40;2.17;;;1.43;;
4831;SDS011;2430;51.322;7.864;2022-09-12T11:40:15;1.03;;;0.93;;
4831;SDS011;2430;51.322;7.864;2022-09-12T11:42:44;1.23;;;1.13;;
4831;SDS011;2430;51.322;7.864;2022-09-12T11:45:12;2.20;;;1.77;;
4831;SDS011;2430;51.322;7.864;2022-09-12T11:47:40;1.93;;;1.73;;
4831;SDS011;2430;51.322;7.864;2022-09-12T11:50:13;1.73;;;1.20;;
4831;SDS011;2430;51.322;7.864;2022-09-12T11:52:41;1.33;;;1.23;;
4831;SDS011;2430;51.322;7.864;2022-09-12T11:55:10;1.13;;;1.03;;
4831;SDS011;2430;51.322;7.864;2022-09-12T11:57:42;1.83;;;1.20;;
4831;SDS011;2430;51.322;7.864;2022-09-12T12:00:14;1.07;;;1.00;;
4831;SDS011;2430;51.322;7.864;2022-09-12T12:02:50;1.53;;;1.43;;
4831;SDS011;2430;51.322;7.864;2022-09-12T12:05:21;1.47;;;1.37;;
4831;SDS011;2430;51.322;7.864;2022-09-12T12:07:51;1.40;;;1.30;;
4831;SDS011;2430;51.322;7.864;2022-09-12T12:10:22;3.67;;;1.53;;
4831;SDS011;2430;51.322;7.864;2022-09-12T12:12:50;1.80;;;1.33;;
4831;SDS011;2430;51.322;7.864;2022-09-12T12:15:18;1.67;;;1.37;;
4831;SDS011;2430;51.322;7.864;2022-09-12T12:17:46;1.00;;;0.90;;
4831;SDS011;2430;51.322;7.864;2022-09-12T12:20:24;2.43;;;1.57;;
4831;SDS011;2430;51.322;7.864;2022-09-12T12:22:51;1.03;;;1.00;;
4831;SDS011;2430;51.322;7.864;2022-09-12T12:25:23;1.53;;;1.37;;
4831;SDS011;2430;51.322;7.864;2022-09-12T12:27:51;2.90;;;1.53;;
4831;SDS011;2430;51.322;7.864;2022-09-12T12:33:06;1.57;;;1.03;;
4831;SDS011;2430;51.322;7.864;2022-09-12T12:36:02;1.80;;;1.30;;
4831;SDS011;2430;51.322;7.864;2022-09-12T12:38:29;1.77;;;1.03;;
4831;SDS011;2430;51.322;7.864;2022-09-12T12:43:37;1.23;;;1.13;;
4831;SDS011;2430;51.322;7.864;2022-09-12T12:46:04;0.97;;;0.83;;
4831;SDS011;2430;51.322;7.864;2022-09-12T12:48:33;1.47;;;1.37;;
4831;SDS011;2430;51.322;7.864;2022-09-12T12:51:16;1.43;;;1.30;;
4831;SDS011;2430;51.322;7.864;2022-09-12T12:53:45;2.13;;;1.30;;
4831;SDS011;2430;51.322;7.864;2022-09-12T12:56:24;1.23;;;1.07;;
4831;SDS011;2430;51.322;7.864;2022-09-12T12:58:55;1.20;;;1.00;;
4831;SDS011;2430;51.322;7.864;2022-09-12T13:01:23;1.53;;;1.43;;
4831;SDS011;2430;51.322;7.864;2022-09-12T13:03:52;1.20;;;1.10;;
4831;SDS011;2430;51.322;7.864;2022-09-12T13:06:26;1.63;;;1.47;;
4831;SDS011;2430;51.322;7.864;2022-09-12T13:08:57;2.20;;;1.43;;
4831;SDS011;2430;51.322;7.864;2022-09-12T13:11:28;1.00;;;0.90;;
4831;SDS011;2430;51.322;7.864;2022-09-12T13:13:56;1.53;;;1.10;;
4831;SDS011;2430;51.322;7.864;2022-09-12T13:16:31;1.73;;;1.40;;
4831;SDS011;2430;51.322;7.864;2022-09-12T13:19:00;1.73;;;1.10;;
4831;SDS011;2430;51.322;7.864;2022-09-12T13:21:29;1.37;;;1.00;;
4831;SDS011;2430;51.322;7.864;2022-09-12T13:23:59;2.80;;;1.40;;
4831;SDS011;2430;51.322;7.864;2022-09-12T13:26:26;2.33;;;1.40;;
4831;SDS011;2430;51.322;7.864;2022-09-12T13:29:07;1.57;;;1.47;;
4831;SDS011;2430;51.322;7.864;2022-09-12T13:31:34;1.77;;;1.67;;
4831;SDS011;2430;51.322;7.864;2022-09-12T13:34:02;2.03;;;1.13;;
4831;SDS011;2430;51.322;7.864;2022-09-12T13:36:44;3.70;;;1.50;;
4831;SDS011;2430;51.322;7.864;2022-09-12T13:39:16;1.50;;;1.40;;
4831;SDS011;2430;51.322;7.864;2022-09-12T13:41:51;4.60;;;1.73;;
4831;SDS011;2430;51.322;7.864;2022-09-12T13:44:21;1.43;;;1.20;;
4831;SDS011;2430;51.322;7.864;2022-09-12T13:46:48;1.50;;;1.33;;
4831;SDS011;2430;51.322;7.864;2022-09-12T13:49:17;5.53;;;1.77;;
4831;SDS011;2430;51.322;7.864;2022-09-12T13:51:47;1.73;;;1.43;;
4831;SDS011;2430;51.322;7.864;2022-09-12T13:54:17;1.07;;;0.97;;
4831;SDS011;2430;51.322;7.864;2022-09-12T13:56:45;3.13;;;1.30;;
4831;SDS011;2430;51.322;7.864;2022-09-12T13:59:12;1.50;;;1.40;;
4831;SDS011;2430;51.322;7.864;2022-09-12T14:01:39;1.30;;;0.90;;
4831;SDS011;2430;51.322;7.864;2022-09-12T14:04:12;1.57;;;1.47;;
4831;SDS011;2430;51.322;7.864;2022-09-12T14:06:58;1.53;;;1.30;;
4831;SDS011;2430;51.322;7.864;2022-09-12T14:09:26;1.50;;;1.33;;
4831;SDS011;2430;51.322;7.864;2022-09-12T14:11:54;1.10;;;1.00;;
4831;SDS011;2430;51.322;7.864;2022-09-12T14:14:23;2.70;;;1.93;;
4831;SDS011;2430;51.322;7.864;2022-09-12T14:16:53;1.67;;;1.30;;
4831;SDS011;2430;51.322;7.864;2022-09-12T14:19:20;1.30;;;1.20;;
4831;SDS011;2430;51.322;7.864;2022-09-12T14:21:50;1.70;;;1.10;;
4831;SDS011;2430;51.322;7.864;2022-09-12T14:24:18;1.53;;;1.43;;
4831;SDS011;2430;51.322;7.864;2022-09-12T14:26:47;1.73;;;1.63;;
4831;SDS011;2430;51.322;7.864;2022-09-12T14:29:14;1.30;;;1.20;;
4831;SDS011;2430;51.322;7.864;2022-09-12T14:31:41;1.77;;;1.57;;
4831;SDS011;2430;51.322;7.864;2022-09-12T14:34:10;1.20;;;1.10;;
4831;SDS011;2430;51.322;7.864;2022-09-12T14:36:39;2.10;;;1.37;;
4831;SDS011;2430;51.322;7.864;2022-09-12T14:39:06;1.67;;;1.17;;
4831;SDS011;2430;51.322;7.864;2022-09-12T14:41:43;26.60;;;1.33;;
4831;SDS011;2430;51.322;7.864;2022-09-12T14:44:14;1.30;;;1.10;;
4831;SDS011;2430;51.322;7.864;2022-09-12T14:46:41;1.33;;;1.23;;
4831;SDS011;2430;51.322;7.864;2022-09-12T14:49:09;1.20;;;1.00;;
4831;SDS011;2430;51.322;7.864;2022-09-12T14:51:40;1.00;;;0.90;;
4831;SDS011;2430;51.322;7.864;2022-09-12T14:56:53;1.10;;;1.00;;
4831;SDS011;2430;51.322;7.864;2022-09-12T14:59:27;1.53;;;1.43;;
4831;SDS011;2430;51.322;7.864;2022-09-12T15:04:39;4.93;;;1.30;;
4831;SDS011;2430;51.322;7.864;2022-09-12T15:07:12;3.20;;;1.83;;
4831;SDS011;2430;51.322;7.864;2022-09-12T15:09:39;2.00;;;1.27;;
4831;SDS011;2430;51.322;7.864;2022-09-12T15:12:08;0.83;;;0.83;;
4831;SDS011;2430;51.322;7.864;2022-09-12T15:14:35;7.00;;;1.33;;
4831;SDS011;2430;51.322;7.864;2022-09-12T15:17:01;1.53;;;1.37;;
4831;SDS011;2430;51.322;7.864;2022-09-12T15:19:28;1.43;;;1.17;;
4831;SDS011;2430;51.322;7.864;2022-09-12T15:21:55;1.33;;;1.23;;
4831;SDS011;2430;51.322;7.864;2022-09-12T15:24:21;1.53;;;1.03;;
4831;SDS011;2430;51.322;7.864;2022-09-12T15:26:48;1.20;;;1.00;;
4831;SDS011;2430;51.322;7.864;2022-09-12T15:29:16;1.00;;;0.90;;
4831;SDS011;2430;51.322;7.864;2022-09-12T15:31:44;0.70;;;0.60;;
4831;SDS011;2430;51.322;7.864;2022-09-12T15:34:11;2.70;;;1.23;;
4831;SDS011;2430;51.322;7.864;2022-09-12T15:36:41;0.90;;;0.90;;
4831;SDS011;2430;51.322;7.864;2022-09-12T15:39:07;2.20;;;0.97;;
4831;SDS011;2430;51.322;7.864;2022-09-12T15:41:34;1.27;;;1.17;;
4831;SDS011;2430;51.322;7.864;2022-09-12T15:44:02;1.07;;;0.90;;
4831;SDS011;2430;51.322;7.864;2022-09-12T15:46:30;1.03;;;0.93;;
4831;SDS011;2430;51.322;7.864;2022-09-12T15:48:56;1.10;;;0.73;;
4831;SDS011;2430;51.322;7.864;2022-09-12T15:51:23;1.10;;;1.00;;